createdAt,value
2023-05-19T00:01:19.177Z,9.13
2023-05-19T00:03:52.723Z,9.03
2023-05-19T00:06:25.147Z,9.01
2023-05-19T00:09:00.161Z,8.98
2023-05-19T00:11:27.626Z,8.92
2023-05-19T00:13:55.546Z,8.89
2023-05-19T00:16:23.518Z,8.91
2023-05-19T00:18:50.303Z,8.85
2023-05-19T00:21:17.024Z,8.88
2023-05-19T00:23:43.814Z,8.81
2023-05-19T00:26:10.884Z,8.70
2023-05-19T00:28:37.482Z,8.60
2023-05-19T00:31:05.552Z,8.55
2023-05-19T00:33:33.770Z,8.49
2023-05-19T00:36:04.362Z,8.48
2023-05-19T00:38:32.121Z,8.52
2023-05-19T00:40:59.623Z,8.52
2023-05-19T00:43:26.480Z,8.49
2023-05-19T00:45:53.149Z,8.46
2023-05-19T00:48:19.673Z,8.40
2023-05-19T00:50:46.375Z,8.39
2023-05-19T00:53:14.907Z,8.37
2023-05-19T00:55:42.778Z,8.35
2023-05-19T00:58:11.758Z,8.35
2023-05-19T01:00:39.762Z,8.34
2023-05-19T01:03:13.238Z,8.33
2023-05-19T01:05:42.023Z,8.34
2023-05-19T01:08:08.929Z,8.30
2023-05-19T01:10:35.570Z,8.26
2023-05-19T01:13:04.463Z,8.27
2023-05-19T01:15:36.276Z,8.25
2023-05-19T01:18:11.669Z,8.20
2023-05-19T01:20:58.018Z,8.17
2023-05-19T01:23:51.182Z,8.11
2023-05-19T01:26:59.398Z,8.11
2023-05-19T01:29:34.836Z,8.07
2023-05-19T01:32:04.662Z,8.08
2023-05-19T01:34:31.774Z,8.07
2023-05-19T01:37:00.835Z,8.03
2023-05-19T01:39:28.403Z,8.02
2023-05-19T01:41:55.081Z,7.98
2023-05-19T01:44:22.453Z,7.95
2023-05-19T01:46:49.989Z,7.91
2023-05-19T01:49:16.535Z,7.88
2023-05-19T01:51:43.082Z,7.82
2023-05-19T01:54:09.631Z,7.77
2023-05-19T01:56:49.921Z,7.70
2023-05-19T01:59:52.297Z,7.72
2023-05-19T02:02:30.382Z,7.67
2023-05-19T02:05:38.340Z,7.63
2023-05-19T02:08:13.091Z,7.62
2023-05-19T02:10:41.291Z,7.58
2023-05-19T02:13:11.482Z,7.58
2023-05-19T02:15:44.800Z,7.55
2023-05-19T02:18:12.216Z,7.52
2023-05-19T02:20:40.050Z,7.52
2023-05-19T02:23:06.699Z,7.47
2023-05-19T02:25:33.345Z,7.42
2023-05-19T02:27:59.962Z,7.40
2023-05-19T02:30:26.562Z,7.32
2023-05-19T02:32:54.345Z,7.35
2023-05-19T02:35:21.431Z,7.31
2023-05-19T02:37:47.954Z,7.29
2023-05-19T02:40:14.652Z,7.31
2023-05-19T02:42:41.221Z,7.21
2023-05-19T02:45:08.316Z,7.16
2023-05-19T02:47:37.002Z,7.19
2023-05-19T02:50:05.004Z,7.15
2023-05-19T02:52:31.787Z,7.09
2023-05-19T02:54:58.315Z,7.08
2023-05-19T02:57:26.737Z,7.07
2023-05-19T02:59:53.262Z,7.07
2023-05-19T03:02:19.815Z,7.03
2023-05-19T03:04:46.423Z,7.01
2023-05-19T03:07:16.387Z,7.06
2023-05-19T03:09:42.942Z,7.02
2023-05-19T03:12:09.586Z,6.95
2023-05-19T03:14:39.263Z,6.94
2023-05-19T03:17:08.146Z,6.95
2023-05-19T03:19:35.005Z,6.94
2023-05-19T03:22:01.627Z,6.92
2023-05-19T03:24:28.214Z,6.89
2023-05-19T03:26:54.739Z,6.88
2023-05-19T03:29:21.591Z,6.86
2023-05-19T03:31:48.112Z,6.81
2023-05-19T03:34:14.670Z,6.78
2023-05-19T03:36:41.209Z,6.87
2023-05-19T03:39:07.741Z,6.88
2023-05-19T03:41:34.254Z,6.81
2023-05-19T03:44:01.333Z,6.77
2023-05-19T03:46:27.952Z,6.74
2023-05-19T03:48:54.582Z,6.72
2023-05-19T03:51:21.312Z,6.65
2023-05-19T03:53:48.779Z,6.60
2023-05-19T03:56:18.041Z,6.62
2023-05-19T03:58:45.061Z,6.69
2023-05-19T04:01:11.752Z,6.73
2023-05-19T04:03:38.474Z,6.78
2023-05-19T04:06:05.129Z,6.73
2023-05-19T04:08:32.133Z,6.73
2023-05-19T04:10:58.694Z,6.76
2023-05-19T04:13:25.317Z,6.75
2023-05-19T04:15:52.323Z,6.81
2023-05-19T04:18:18.872Z,6.86
2023-05-19T04:20:45.312Z,6.90
2023-05-19T04:23:11.776Z,6.84
2023-05-19T04:25:38.410Z,6.88
2023-05-19T04:28:04.945Z,6.90
2023-05-19T04:30:31.689Z,6.89
2023-05-19T04:32:59.858Z,6.95
2023-05-19T04:35:26.970Z,6.99
2023-05-19T04:37:56.056Z,7.02
2023-05-19T04:40:23.908Z,7.06
2023-05-19T04:42:54.083Z,7.09
2023-05-19T04:45:20.618Z,7.07
2023-05-19T04:47:48.262Z,7.13
2023-05-19T04:50:16.436Z,7.14
2023-05-19T04:52:45.581Z,7.19
2023-05-19T04:55:13.427Z,7.23
2023-05-19T04:57:40.202Z,7.25
2023-05-19T05:00:09.099Z,7.29
2023-05-19T05:02:36.273Z,7.32
2023-05-19T05:05:02.965Z,7.35
2023-05-19T05:07:31.671Z,7.36
2023-05-19T05:09:58.987Z,7.39
2023-05-19T05:12:25.943Z,7.43
2023-05-19T05:14:52.694Z,7.47
2023-05-19T05:17:20.467Z,7.54
2023-05-19T05:19:48.517Z,7.59
2023-05-19T05:22:15.461Z,7.61
2023-05-19T05:24:42.221Z,7.62
2023-05-19T05:27:10.240Z,7.68
2023-05-19T05:29:37.020Z,7.79
2023-05-19T05:32:03.770Z,7.87
2023-05-19T05:34:30.604Z,7.96
2023-05-19T05:36:57.143Z,8.04
2023-05-19T05:39:23.773Z,8.06
2023-05-19T05:41:50.357Z,8.05
2023-05-19T05:44:16.998Z,8.11
2023-05-19T05:46:43.814Z,8.16
2023-05-19T05:49:12.467Z,8.27
2023-05-19T05:51:42.920Z,8.42
2023-05-19T05:54:12.563Z,8.54
2023-05-19T05:56:41.212Z,8.67
2023-05-19T05:59:07.903Z,8.83
2023-05-19T06:01:35.995Z,8.95
2023-05-19T06:04:02.637Z,9.04
2023-05-19T06:06:29.371Z,9.10
2023-05-19T06:08:56.122Z,9.09
2023-05-19T06:11:23.172Z,9.13
2023-05-19T06:13:49.748Z,9.22
2023-05-19T06:16:16.369Z,9.36
2023-05-19T06:18:43.040Z,9.43
2023-05-19T06:21:10.460Z,9.62
2023-05-19T06:23:37.210Z,9.75
2023-05-19T06:26:04.063Z,9.84
2023-05-19T06:28:31.746Z,9.85
2023-05-19T06:31:00.295Z,9.90
2023-05-19T06:33:29.124Z,10.04
2023-05-19T06:35:56.063Z,10.19
2023-05-19T06:38:22.854Z,10.32
2023-05-19T06:40:49.678Z,10.44
2023-05-19T06:43:16.445Z,10.58
2023-05-19T06:45:43.034Z,10.68
2023-05-19T06:48:12.882Z,10.80
2023-05-19T06:50:39.538Z,10.84
2023-05-19T06:53:06.250Z,10.93
2023-05-19T06:55:34.384Z,11.03
2023-05-19T06:58:02.381Z,11.18
2023-05-19T07:00:29.505Z,11.27
2023-05-19T07:02:56.491Z,11.37
2023-05-19T07:05:23.228Z,11.48
2023-05-19T07:07:50.233Z,11.55
2023-05-19T07:10:17.041Z,11.56
2023-05-19T07:12:43.916Z,11.64
2023-05-19T07:15:11.095Z,11.82
2023-05-19T07:17:37.616Z,11.98
2023-05-19T07:20:06.903Z,12.09
2023-05-19T07:22:36.547Z,12.15
2023-05-19T07:25:03.535Z,12.20
2023-05-19T07:27:30.265Z,12.25
2023-05-19T07:29:57.007Z,12.29
2023-05-19T07:32:23.856Z,12.58
2023-05-19T07:34:50.708Z,12.75
2023-05-19T07:37:17.381Z,12.93
2023-05-19T07:39:44.058Z,13.20
2023-05-19T07:42:10.899Z,13.33
2023-05-19T07:44:37.525Z,13.43
2023-05-19T07:47:04.268Z,13.49
2023-05-19T07:49:31.090Z,13.44
2023-05-19T07:51:57.937Z,13.38
2023-05-19T07:54:24.766Z,13.43
2023-05-19T07:56:51.919Z,13.54
2023-05-19T07:59:18.715Z,13.66
2023-05-19T08:01:45.856Z,13.71
2023-05-19T08:04:13.139Z,13.76
2023-05-19T08:06:40.302Z,13.78
2023-05-19T08:09:07.421Z,13.79
2023-05-19T08:11:34.078Z,13.96
2023-05-19T08:14:00.850Z,14.17
2023-05-19T08:16:27.572Z,14.41
2023-05-19T08:18:54.994Z,14.54
2023-05-19T08:21:22.047Z,14.63
2023-05-19T08:23:48.627Z,14.66
2023-05-19T08:26:15.590Z,14.74
2023-05-19T08:28:42.339Z,14.83
2023-05-19T08:31:09.133Z,14.76
2023-05-19T08:33:35.786Z,14.75
2023-05-19T08:36:03.846Z,14.88
2023-05-19T08:38:30.362Z,15.06
2023-05-19T08:40:58.249Z,15.11
2023-05-19T08:43:24.913Z,15.09
2023-05-19T08:45:54.109Z,15.21
2023-05-19T08:48:22.473Z,15.25
2023-05-19T08:51:10.941Z,15.43
2023-05-19T08:53:41.236Z,15.60
2023-05-19T08:56:20.053Z,15.62
2023-05-19T08:58:48.930Z,15.56
2023-05-19T09:01:18.787Z,15.47
2023-05-19T09:03:47.470Z,15.56
2023-05-19T09:06:14.626Z,15.55
2023-05-19T09:08:42.411Z,15.54
2023-05-19T09:11:10.218Z,15.52
2023-05-19T09:13:37.232Z,15.52
2023-05-19T09:16:04.345Z,15.53
2023-05-19T09:18:31.507Z,15.55
2023-05-19T09:21:00.381Z,15.57
2023-05-19T09:23:33.434Z,15.70
2023-05-19T09:26:07.259Z,15.87
2023-05-19T09:28:36.428Z,15.99
2023-05-19T09:31:05.260Z,16.07
2023-05-19T09:33:42.188Z,16.17
2023-05-19T09:36:11.537Z,16.16
2023-05-19T09:38:39.049Z,16.19
2023-05-19T09:41:10.897Z,16.25
2023-05-19T09:43:37.528Z,16.25
2023-05-19T09:46:08.750Z,16.33
2023-05-19T09:48:36.868Z,16.37
2023-05-19T09:51:05.407Z,16.48
2023-05-19T09:53:32.542Z,16.54
2023-05-19T09:56:01.987Z,16.50
2023-05-19T09:58:37.438Z,16.35
2023-05-19T10:01:04.855Z,16.21
2023-05-19T10:03:35.225Z,16.17
2023-05-19T10:06:03.931Z,16.22
2023-05-19T10:08:31.900Z,16.32
2023-05-19T10:10:59.381Z,16.43
2023-05-19T10:13:29.138Z,16.55
2023-05-19T10:15:59.201Z,16.75
2023-05-19T10:18:27.901Z,16.77
2023-05-19T10:20:54.813Z,16.97
2023-05-19T10:23:24.154Z,16.97
2023-05-19T10:25:55.984Z,17.14
2023-05-19T10:28:27.971Z,17.35
2023-05-19T10:30:58.814Z,17.48
2023-05-19T10:33:57.995Z,17.58
2023-05-19T10:36:46.265Z,17.56
2023-05-19T10:39:37.830Z,17.59
2023-05-19T10:42:09.186Z,17.61
2023-05-19T10:45:05.580Z,17.62
2023-05-19T10:47:33.674Z,17.82
2023-05-19T10:50:04.416Z,17.77
2023-05-19T10:52:31.031Z,17.70
2023-05-19T10:54:58.487Z,17.80
2023-05-19T10:57:32.025Z,17.71
2023-05-19T11:00:00.922Z,17.49
2023-05-19T11:02:44.082Z,17.50
2023-05-19T11:05:18.107Z,17.67
2023-05-19T11:07:55.302Z,17.90
2023-05-19T11:10:25.198Z,18.05
2023-05-19T11:12:52.485Z,18.20
2023-05-19T11:15:25.547Z,18.28
2023-05-19T11:17:52.553Z,18.50
2023-05-19T11:20:27.438Z,18.68
2023-05-19T11:23:19.563Z,18.81
2023-05-19T11:25:51.611Z,18.60
2023-05-19T11:28:19.979Z,18.59
2023-05-19T11:30:52.147Z,18.71
2023-05-19T11:33:20.340Z,19.02
2023-05-19T11:35:49.449Z,19.11
2023-05-19T11:38:17.211Z,19.24
2023-05-19T11:40:44.476Z,19.24
2023-05-19T11:43:11.257Z,19.31
2023-05-19T11:45:38.045Z,19.65
2023-05-19T11:48:05.564Z,19.71
2023-05-19T11:50:32.803Z,19.70
2023-05-19T11:53:01.091Z,19.72
2023-05-19T11:55:28.314Z,19.79
2023-05-19T11:58:04.460Z,19.67
2023-05-19T12:00:54.575Z,19.61
2023-05-19T12:03:22.233Z,19.52
2023-05-19T12:05:49.699Z,19.82
2023-05-19T12:08:18.630Z,20.00
2023-05-19T12:10:57.248Z,20.03
2023-05-19T12:13:25.249Z,19.93
2023-05-19T12:15:52.551Z,19.92
2023-05-19T12:18:19.752Z,19.84
2023-05-19T12:20:46.912Z,19.87
2023-05-19T12:23:14.675Z,19.86
2023-05-19T12:25:42.330Z,19.66
2023-05-19T12:28:09.615Z,19.58
2023-05-19T12:30:36.783Z,19.70
2023-05-19T12:33:03.893Z,19.85
2023-05-19T12:35:34.681Z,19.81
2023-05-19T12:38:06.166Z,19.87
2023-05-19T12:40:37.096Z,19.90
2023-05-19T12:43:05.561Z,20.05
2023-05-19T12:45:42.505Z,20.51
2023-05-19T12:48:12.650Z,20.98
2023-05-19T12:50:39.490Z,21.12
2023-05-19T12:53:09.337Z,21.11
2023-05-19T12:55:45.611Z,20.87
2023-05-19T12:58:12.797Z,20.77
2023-05-19T13:00:44.961Z,20.81
2023-05-19T13:03:17.321Z,20.95
2023-05-19T13:05:47.343Z,20.96
2023-05-19T13:08:16.872Z,21.13
2023-05-19T13:10:45.968Z,21.39
2023-05-19T13:13:13.572Z,21.04
2023-05-19T13:15:49.120Z,20.94
2023-05-19T13:18:17.000Z,21.02
2023-05-19T13:20:44.926Z,20.97
2023-05-19T13:23:11.796Z,21.23
2023-05-19T13:25:38.369Z,20.99
2023-05-19T13:28:05.927Z,20.99
2023-05-19T13:30:34.215Z,21.08
2023-05-19T13:33:01.277Z,21.21
2023-05-19T13:35:28.316Z,21.15
2023-05-19T13:37:54.912Z,21.09
2023-05-19T13:40:23.098Z,21.12
2023-05-19T13:42:49.765Z,21.24
2023-05-19T13:45:16.452Z,21.34
2023-05-19T13:47:42.998Z,21.21
2023-05-19T13:50:09.829Z,21.38
2023-05-19T13:52:36.330Z,21.37
2023-05-19T13:55:03.708Z,21.44
2023-05-19T13:57:30.260Z,21.63
2023-05-19T14:00:01.708Z,21.68
2023-05-19T14:02:30.211Z,21.67
2023-05-19T14:04:57.506Z,21.68
2023-05-19T14:07:24.232Z,21.70
2023-05-19T14:09:52.378Z,21.96
2023-05-19T14:12:21.550Z,21.84
2023-05-19T14:14:50.258Z,21.22
2023-05-19T14:17:16.853Z,20.75
2023-05-19T14:19:43.380Z,21.08
2023-05-19T14:22:10.123Z,21.51
2023-05-19T14:24:37.195Z,21.65
2023-05-19T14:27:03.966Z,21.57
2023-05-19T14:29:31.198Z,21.39
2023-05-19T14:31:57.872Z,21.48
2023-05-19T14:34:24.496Z,21.80
2023-05-19T14:36:51.132Z,22.02
2023-05-19T14:39:17.655Z,22.11
2023-05-19T14:41:44.171Z,22.10
2023-05-19T14:44:10.789Z,21.84
2023-05-19T14:46:37.435Z,21.81
2023-05-19T14:49:05.810Z,21.92
2023-05-19T14:51:32.704Z,22.19
2023-05-19T14:54:00.271Z,22.21
2023-05-19T14:56:26.837Z,22.33
2023-05-19T14:58:53.356Z,22.70
2023-05-19T15:01:20.060Z,22.45
2023-05-19T15:03:46.757Z,22.52
2023-05-19T15:06:13.331Z,22.57
2023-05-19T15:08:41.109Z,22.84
2023-05-19T15:11:08.072Z,22.79
2023-05-19T15:13:34.670Z,22.74
2023-05-19T15:16:12.470Z,22.81
2023-05-19T15:18:43.592Z,22.84
2023-05-19T15:21:10.383Z,23.18
2023-05-19T15:23:36.899Z,23.16
2023-05-19T15:26:03.851Z,23.22
2023-05-19T15:28:30.570Z,22.91
2023-05-19T15:30:57.130Z,22.79
2023-05-19T15:33:23.680Z,22.69
2023-05-19T15:35:52.070Z,22.67
2023-05-19T15:38:19.496Z,22.82
2023-05-19T15:40:46.718Z,22.83
2023-05-19T15:43:13.575Z,22.88
2023-05-19T15:45:40.110Z,22.51
2023-05-19T15:48:06.963Z,22.20
2023-05-19T15:50:33.859Z,22.41
2023-05-19T15:53:00.642Z,22.66
2023-05-19T15:55:27.192Z,23.01
2023-05-19T15:57:53.779Z,23.04
2023-05-19T16:00:20.524Z,22.79
2023-05-19T16:02:47.355Z,22.12
2023-05-19T16:05:14.023Z,21.37
2023-05-19T16:07:42.040Z,21.30
2023-05-19T16:10:09.160Z,21.60
2023-05-19T16:12:36.670Z,21.89
2023-05-19T16:15:03.762Z,21.79
2023-05-19T16:17:30.500Z,21.81
2023-05-19T16:19:57.119Z,21.97
2023-05-19T16:22:24.960Z,22.22
2023-05-19T16:24:51.846Z,22.57
2023-05-19T16:27:18.689Z,22.53
2023-05-19T16:29:45.349Z,22.48
2023-05-19T16:32:12.592Z,22.61
2023-05-19T16:34:39.534Z,22.32
2023-05-19T16:37:06.223Z,22.11
2023-05-19T16:39:35.994Z,21.85
2023-05-19T16:42:03.304Z,21.43
2023-05-19T16:44:29.880Z,21.24
2023-05-19T16:46:56.413Z,21.31
2023-05-19T16:49:22.911Z,21.46
2023-05-19T16:51:49.740Z,21.66
2023-05-19T16:54:16.291Z,21.76
2023-05-19T16:56:45.197Z,21.86
2023-05-19T16:59:11.697Z,22.04
2023-05-19T17:01:38.262Z,21.90
2023-05-19T17:04:05.008Z,21.27
2023-05-19T17:06:31.694Z,20.90
2023-05-19T17:08:58.268Z,20.64
2023-05-19T17:11:24.874Z,20.40
2023-05-19T17:13:51.327Z,20.16
2023-05-19T17:16:18.249Z,19.96
2023-05-19T17:18:44.938Z,20.10
2023-05-19T17:21:11.575Z,20.38
2023-05-19T17:23:38.247Z,20.71
2023-05-19T17:26:05.296Z,21.02
2023-05-19T17:28:32.352Z,20.96
2023-05-19T17:30:58.880Z,20.94
2023-05-19T17:33:25.783Z,20.69
2023-05-19T17:35:52.463Z,20.43
2023-05-19T17:38:19.488Z,20.19
2023-05-19T17:40:46.023Z,20.03
2023-05-19T17:43:12.788Z,19.88
2023-05-19T17:45:39.329Z,19.96
2023-05-19T17:48:06.271Z,20.16
2023-05-19T17:50:33.087Z,20.35
2023-05-19T17:52:59.977Z,20.45
2023-05-19T17:55:29.909Z,20.47
2023-05-19T17:57:57.460Z,20.44
2023-05-19T18:00:25.298Z,20.25
2023-05-19T18:02:52.463Z,19.99
2023-05-19T18:05:19.611Z,19.77
2023-05-19T18:07:46.378Z,19.63
2023-05-19T18:10:16.203Z,19.43
2023-05-19T18:12:42.801Z,19.21
2023-05-19T18:15:09.773Z,19.02
2023-05-19T18:17:36.541Z,18.73
2023-05-19T18:20:03.409Z,18.51
2023-05-19T18:22:30.082Z,18.44
2023-05-19T18:24:57.638Z,18.37
2023-05-19T18:27:24.192Z,18.31
2023-05-19T18:29:50.775Z,18.26
2023-05-19T18:32:17.712Z,18.17
2023-05-19T18:34:44.404Z,18.09
2023-05-19T18:37:11.021Z,18.06
2023-05-19T18:39:37.857Z,17.98
2023-05-19T18:42:04.565Z,17.91
2023-05-19T18:44:31.148Z,17.77
2023-05-19T18:46:57.663Z,17.65
2023-05-19T18:49:25.123Z,17.68
2023-05-19T18:51:52.020Z,17.54
2023-05-19T18:54:20.315Z,17.40
2023-05-19T18:56:46.824Z,17.27
2023-05-19T18:59:13.465Z,17.19
2023-05-19T19:01:40.189Z,17.13
2023-05-19T19:04:06.919Z,17.04
2023-05-19T19:06:33.576Z,16.96
2023-05-19T19:09:00.104Z,16.94
2023-05-19T19:11:26.726Z,16.94
2023-05-19T19:13:55.467Z,16.98
2023-05-19T19:16:22.543Z,16.93
2023-05-19T19:18:49.232Z,16.84
2023-05-19T19:21:15.838Z,16.80
2023-05-19T19:23:42.377Z,16.74
2023-05-19T19:26:09.545Z,16.65
2023-05-19T19:28:36.759Z,16.64
2023-05-19T19:31:03.312Z,16.62
2023-05-19T19:33:29.912Z,16.62
2023-05-19T19:35:56.571Z,16.60
2023-05-19T19:38:23.151Z,16.55
2023-05-19T19:40:52.167Z,16.55
2023-05-19T19:43:18.858Z,16.56
2023-05-19T19:45:45.716Z,16.58
2023-05-19T19:48:12.525Z,16.55
2023-05-19T19:50:39.091Z,16.54
2023-05-19T19:53:05.699Z,16.48
2023-05-19T19:55:32.398Z,16.40
2023-05-19T19:57:58.921Z,16.35
2023-05-19T20:00:25.501Z,16.31
2023-05-19T20:03:04.429Z,16.29
2023-05-19T20:05:32.533Z,16.23
2023-05-19T20:07:59.248Z,16.20
2023-05-19T20:10:25.815Z,16.17
2023-05-19T20:12:52.535Z,16.07
2023-05-19T20:15:19.353Z,15.99
2023-05-19T20:17:45.985Z,15.88
2023-05-19T20:20:13.068Z,15.80
2023-05-19T20:22:39.625Z,15.74
2023-05-19T20:25:06.630Z,15.68
2023-05-19T20:27:33.219Z,15.55
2023-05-19T20:29:59.833Z,15.55
2023-05-19T20:32:26.542Z,15.55
2023-05-19T20:34:53.189Z,15.56
2023-05-19T20:37:21.527Z,15.52
2023-05-19T20:39:48.137Z,15.46
2023-05-19T20:42:14.828Z,15.39
2023-05-19T20:44:41.545Z,15.32
2023-05-19T20:47:08.512Z,15.31
2023-05-19T20:49:35.578Z,15.23
2023-05-19T20:52:02.235Z,15.23
2023-05-19T20:54:28.873Z,15.19
2023-05-19T20:56:55.580Z,15.16
2023-05-19T20:59:22.180Z,15.09
2023-05-19T21:01:48.821Z,15.03
2023-05-19T21:04:15.387Z,15.02
2023-05-19T21:06:42.011Z,14.91
2023-05-19T21:09:08.759Z,14.82
2023-05-19T21:11:35.568Z,14.75
2023-05-19T21:14:05.515Z,14.65
2023-05-19T21:16:32.350Z,14.64
2023-05-19T21:18:59.023Z,14.66
2023-05-19T21:21:26.182Z,14.59
2023-05-19T21:23:52.847Z,14.54
2023-05-19T21:26:19.414Z,14.52
2023-05-19T21:28:46.264Z,14.38
2023-05-19T21:31:12.857Z,14.30
2023-05-19T21:33:39.360Z,14.24
2023-05-19T21:36:40.010Z,14.15
2023-05-19T21:39:06.482Z,14.08
2023-05-19T21:41:33.302Z,14.06
2023-05-19T21:43:59.885Z,14.00
2023-05-19T21:46:29.001Z,13.94
2023-05-19T21:48:55.857Z,13.95
2023-05-19T21:51:22.436Z,13.88
2023-05-19T21:53:49.004Z,13.80
2023-05-19T21:56:17.036Z,13.72
2023-05-19T21:58:43.632Z,13.68
2023-05-19T22:01:10.188Z,13.63
2023-05-19T22:03:37.279Z,13.64
2023-05-19T22:06:06.339Z,13.59
2023-05-19T22:08:32.861Z,13.55
2023-05-19T22:10:59.513Z,13.55
2023-05-19T22:13:26.299Z,13.52
2023-05-19T22:15:52.949Z,13.45
2023-05-19T22:18:19.596Z,13.42
2023-05-19T22:20:46.340Z,13.39
2023-05-19T22:23:12.916Z,13.39
2023-05-19T22:25:39.500Z,13.31
2023-05-19T22:28:07.896Z,13.22
2023-05-19T22:30:38.515Z,13.16
2023-05-19T22:33:06.551Z,13.14
2023-05-19T22:35:33.149Z,13.14
2023-05-19T22:37:59.954Z,13.10
2023-05-19T22:40:26.589Z,13.05
2023-05-19T22:42:53.097Z,13.04
2023-05-19T22:45:19.976Z,12.99
2023-05-19T22:47:47.989Z,12.92
2023-05-19T22:50:14.774Z,12.90
2023-05-19T22:52:41.319Z,12.91
2023-05-19T22:55:08.276Z,12.88
2023-05-19T22:57:34.774Z,12.88
2023-05-19T23:00:01.340Z,12.88
2023-05-19T23:02:27.871Z,12.82
2023-05-19T23:04:54.503Z,12.82
2023-05-19T23:07:21.140Z,12.77
2023-05-19T23:09:47.788Z,12.72
2023-05-19T23:12:14.290Z,12.71
2023-05-19T23:14:40.837Z,12.64
2023-05-19T23:17:07.388Z,12.60
2023-05-19T23:19:35.366Z,12.55
2023-05-19T23:22:02.063Z,12.47
2023-05-19T23:24:28.588Z,12.42
2023-05-19T23:26:55.231Z,12.41
2023-05-19T23:29:21.858Z,12.31
2023-05-19T23:31:48.519Z,12.26
2023-05-19T23:34:15.190Z,12.26
2023-05-19T23:36:41.762Z,12.22
2023-05-19T23:39:08.254Z,12.21
2023-05-19T23:41:34.764Z,12.19
2023-05-19T23:44:01.330Z,12.16
2023-05-19T23:46:27.992Z,12.13
2023-05-19T23:48:54.545Z,12.07
2023-05-19T23:51:21.082Z,12.01
2023-05-19T23:53:47.598Z,12.01
2023-05-19T23:56:14.184Z,11.96
2023-05-19T23:58:40.874Z,11.93
